CES2272 ZYCC-ZLXY
Flight info
| Callsign | CES2272 |
|---|---|
| Flight time | 3h 2m |
| Altitude | 36000 |
| Route | K0857S1100 BUTET9D BUTET G341 TGO B334 KAKAT W28 VERMI DCT TMR DCT OSRUR DCT IGPAS DCT SUROS DCT HET W84 IBARO W47 LOVRA LOVRA2Y |
| Aircraft | A319/M-SDE3FGHIRWY/LB1 |
Departure
| Time | 2026-04-20 15:31 |
|---|---|
| Airport | Changchun Longjia International Airport (ZYCC) |
Arrival
| Time | 2026-04-20 18:33 |
|---|---|
| Airport | Xi'an Xianyang International Airport (ZLXY) |
| Time | Latitude | Longitude | Altitude | Speed | Heading |
|---|---|---|---|---|---|
| 2026-04-20 15:08 | 43.99418 | 125.69038 | 664 ft | 0 kts | 140° |
| 2026-04-20 15:18 | 43.99419 | 125.69037 | 664 ft | 1 kts | 140° |
| 2026-04-20 15:18 | 43.99430 | 125.69024 | 665 ft | 2 kts | 140° |
| 2026-04-20 15:18 | 43.99441 | 125.69011 | 665 ft | 2 kts | 140° |
| 2026-04-20 15:19 | 43.99453 | 125.68998 | 666 ft | 2 kts | 140° |
| 2026-04-20 15:19 | 43.99464 | 125.68984 | 666 ft | 2 kts | 140° |
| 2026-04-20 15:19 | 43.99475 | 125.68972 | 667 ft | 0 kts | 140° |
| 2026-04-20 15:19 | 43.99482 | 125.68962 | 667 ft | 2 kts | 112° |
| 2026-04-20 15:20 | 43.99484 | 125.68941 | 668 ft | 2 kts | 69° |
| 2026-04-20 15:20 | 43.99480 | 125.68932 | 668 ft | 1 kts | 44° |
| 2026-04-20 15:20 | 43.99476 | 125.68927 | 668 ft | 0 kts | 50° |
| 2026-04-20 15:23 | 43.99482 | 125.68936 | 668 ft | 3 kts | 50° |
| 2026-04-20 15:23 | 43.99507 | 125.68979 | 666 ft | 8 kts | 50° |
| 2026-04-20 15:23 | 43.99554 | 125.69055 | 663 ft | 12 kts | 50° |
| 2026-04-20 15:24 | 43.99620 | 125.69162 | 659 ft | 16 kts | 49° |
| 2026-04-20 15:24 | 43.99688 | 125.69271 | 657 ft | 12 kts | 50° |
| 2026-04-20 15:24 | 43.99748 | 125.69370 | 655 ft | 14 kts | 50° |
| 2026-04-20 15:24 | 43.99815 | 125.69478 | 653 ft | 10 kts | 49° |
| 2026-04-20 15:25 | 43.99884 | 125.69502 | 651 ft | 10 kts | 337° |
| 2026-04-20 15:25 | 43.99940 | 125.69517 | 650 ft | 9 kts | 53° |
| 2026-04-20 15:25 | 43.99986 | 125.69604 | 647 ft | 13 kts | 50° |
| 2026-04-20 15:25 | 44.00044 | 125.69696 | 646 ft | 9 kts | 45° |
| 2026-04-20 15:26 | 44.00107 | 125.69716 | 646 ft | 10 kts | 342° |
| 2026-04-20 15:26 | 44.00173 | 125.69745 | 644 ft | 12 kts | 51° |
| 2026-04-20 15:26 | 44.00234 | 125.69846 | 642 ft | 14 kts | 50° |
| 2026-04-20 15:26 | 44.00304 | 125.69958 | 640 ft | 16 kts | 49° |
| 2026-04-20 15:27 | 44.00374 | 125.70069 | 637 ft | 14 kts | 49° |
| 2026-04-20 15:27 | 44.00420 | 125.70141 | 634 ft | 7 kts | 36° |
| 2026-04-20 15:27 | 44.00479 | 125.70129 | 633 ft | 9 kts | 331° |
| 2026-04-20 15:27 | 44.00525 | 125.70061 | 634 ft | 10 kts | 312° |
| 2026-04-20 15:28 | 44.00555 | 125.70001 | 634 ft | 5 kts | 253° |
| 2026-04-20 15:28 | 44.00547 | 125.69986 | 635 ft | 0 kts | 230° |
| 2026-04-20 15:30 | 44.00547 | 125.69985 | 635 ft | 0 kts | 230° |
| 2026-04-20 15:30 | 44.00445 | 125.69822 | 640 ft | 55 kts | 229° |
| 2026-04-20 15:30 | 44.00057 | 125.69198 | 655 ft | 114 kts | 229° |
| 2026-04-20 15:31 | 43.99424 | 125.68175 | 717 ft | 160 kts | 230° |
| 2026-04-20 15:31 | 43.98705 | 125.67030 | 1316 ft | 158 kts | 232° |
| 2026-04-20 15:31 | 43.97976 | 125.65912 | 2011 ft | 157 kts | 233° |
| 2026-04-20 15:31 | 43.97258 | 125.64807 | 2598 ft | 161 kts | 234° |
| 2026-04-20 15:32 | 43.96495 | 125.63593 | 3015 ft | 175 kts | 237° |
| 2026-04-20 15:32 | 43.95675 | 125.62246 | 3413 ft | 191 kts | 237° |
| 2026-04-20 15:32 | 43.94759 | 125.60756 | 3748 ft | 213 kts | 236° |
| 2026-04-20 15:32 | 43.93765 | 125.59151 | 4186 ft | 230 kts | 236° |
| 2026-04-20 15:33 | 43.92692 | 125.57429 | 4774 ft | 242 kts | 236° |
| 2026-04-20 15:33 | 43.91584 | 125.55669 | 5592 ft | 244 kts | 237° |
| 2026-04-20 15:33 | 43.90483 | 125.53920 | 6384 ft | 246 kts | 237° |
| 2026-04-20 15:33 | 43.89346 | 125.52107 | 7158 ft | 250 kts | 238° |
| 2026-04-20 15:34 | 43.88208 | 125.50289 | 7935 ft | 253 kts | 238° |
| 2026-04-20 15:34 | 43.87062 | 125.48454 | 8693 ft | 256 kts | 238° |
| 2026-04-20 15:34 | 43.85874 | 125.46557 | 9489 ft | 259 kts | 238° |
| 2026-04-20 15:34 | 43.84692 | 125.44674 | 10215 ft | 264 kts | 238° |
| 2026-04-20 15:35 | 43.83458 | 125.42699 | 10693 ft | 277 kts | 238° |
| 2026-04-20 15:35 | 43.82165 | 125.40625 | 11024 ft | 294 kts | 238° |
| 2026-04-20 15:35 | 43.80773 | 125.38404 | 11340 ft | 311 kts | 238° |
| 2026-04-20 15:35 | 43.79539 | 125.35948 | 11630 ft | 317 kts | 250° |
| 2026-04-20 15:36 | 43.78784 | 125.33059 | 11927 ft | 323 kts | 263° |
| 2026-04-20 15:36 | 43.78508 | 125.29923 | 12430 ft | 328 kts | 269° |
| 2026-04-20 15:36 | 43.78334 | 125.26753 | 13099 ft | 330 kts | 270° |
| 2026-04-20 15:36 | 43.78164 | 125.23598 | 13739 ft | 333 kts | 270° |
| 2026-04-20 15:37 | 43.77990 | 125.20376 | 14237 ft | 339 kts | 270° |
| 2026-04-20 15:37 | 43.77811 | 125.17118 | 14812 ft | 342 kts | 270° |
| 2026-04-20 15:37 | 43.77628 | 125.13854 | 15381 ft | 345 kts | 270° |
| 2026-04-20 15:37 | 43.77438 | 125.10545 | 15939 ft | 348 kts | 270° |
| 2026-04-20 15:38 | 43.77249 | 125.07204 | 16481 ft | 351 kts | 270° |
| 2026-04-20 15:38 | 43.77061 | 125.03823 | 17010 ft | 353 kts | 270° |
| 2026-04-20 15:38 | 43.76870 | 125.00451 | 17475 ft | 357 kts | 271° |
| 2026-04-20 15:38 | 43.76678 | 124.97036 | 17947 ft | 360 kts | 270° |
| 2026-04-20 15:39 | 43.76481 | 124.93581 | 18442 ft | 362 kts | 270° |
| 2026-04-20 15:39 | 43.76281 | 124.90104 | 18871 ft | 365 kts | 271° |
| 2026-04-20 15:39 | 43.76077 | 124.86594 | 19293 ft | 368 kts | 271° |
| 2026-04-20 15:39 | 43.75875 | 124.83087 | 19755 ft | 370 kts | 271° |
| 2026-04-20 15:40 | 43.75669 | 124.79537 | 20144 ft | 373 kts | 270° |
| 2026-04-20 15:40 | 43.75460 | 124.75975 | 20538 ft | 376 kts | 270° |
| 2026-04-20 15:40 | 43.75247 | 124.72365 | 20968 ft | 377 kts | 270° |
| 2026-04-20 15:40 | 43.75033 | 124.68742 | 21356 ft | 380 kts | 270° |
| 2026-04-20 15:41 | 43.74812 | 124.65088 | 21730 ft | 382 kts | 270° |
| 2026-04-20 15:41 | 43.74593 | 124.61443 | 22096 ft | 385 kts | 271° |
| 2026-04-20 15:41 | 43.74368 | 124.57743 | 22449 ft | 387 kts | 270° |
| 2026-04-20 15:41 | 43.74146 | 124.54071 | 22793 ft | 389 kts | 270° |
| 2026-04-20 15:42 | 43.73908 | 124.50333 | 23158 ft | 392 kts | 269° |
| 2026-04-20 15:42 | 43.73452 | 124.46628 | 23483 ft | 398 kts | 263° |
| 2026-04-20 15:42 | 43.72672 | 124.42937 | 23807 ft | 405 kts | 257° |
| 2026-04-20 15:42 | 43.71579 | 124.39327 | 24105 ft | 413 kts | 252° |
| 2026-04-20 15:43 | 43.70303 | 124.35720 | 24404 ft | 416 kts | 251° |
| 2026-04-20 15:43 | 43.69183 | 124.32114 | 24717 ft | 412 kts | 257° |
| 2026-04-20 15:43 | 43.68364 | 124.28324 | 25037 ft | 408 kts | 262° |
| 2026-04-20 15:43 | 43.67867 | 124.24473 | 25381 ft | 404 kts | 268° |
| 2026-04-20 15:44 | 43.67608 | 124.20654 | 25803 ft | 401 kts | 270° |
| 2026-04-20 15:44 | 43.67386 | 124.16860 | 26238 ft | 399 kts | 271° |
| 2026-04-20 15:44 | 43.67167 | 124.13062 | 26658 ft | 396 kts | 270° |
| 2026-04-20 15:44 | 43.66952 | 124.09290 | 27070 ft | 394 kts | 270° |
| 2026-04-20 15:45 | 43.66738 | 124.05553 | 27477 ft | 392 kts | 270° |
| 2026-04-20 15:45 | 43.66518 | 124.01781 | 27868 ft | 391 kts | 270° |
| 2026-04-20 15:45 | 43.66302 | 123.98068 | 28216 ft | 390 kts | 270° |
| 2026-04-20 15:45 | 43.66087 | 123.94363 | 28559 ft | 390 kts | 270° |
| 2026-04-20 15:46 | 43.65870 | 123.90681 | 28885 ft | 388 kts | 270° |
| 2026-04-20 15:46 | 43.65648 | 123.86979 | 29214 ft | 386 kts | 270° |
| 2026-04-20 15:46 | 43.65427 | 123.83277 | 29519 ft | 385 kts | 270° |
| 2026-04-20 15:46 | 43.65209 | 123.79640 | 29807 ft | 384 kts | 270° |
| 2026-04-20 15:47 | 43.64987 | 123.75976 | 30111 ft | 383 kts | 270° |
| 2026-04-20 15:47 | 43.64766 | 123.72311 | 30378 ft | 382 kts | 270° |
| 2026-04-20 15:47 | 43.64543 | 123.68675 | 30652 ft | 381 kts | 270° |
| 2026-04-20 15:47 | 43.64324 | 123.65086 | 30906 ft | 380 kts | 270° |
| 2026-04-20 15:48 | 43.64101 | 123.61459 | 31100 ft | 380 kts | 270° |
| 2026-04-20 15:48 | 43.63875 | 123.57816 | 31286 ft | 380 kts | 270° |
| 2026-04-20 15:48 | 43.63649 | 123.54214 | 31474 ft | 379 kts | 270° |
| 2026-04-20 15:48 | 43.63425 | 123.50597 | 31635 ft | 379 kts | 270° |
| 2026-04-20 15:49 | 43.63199 | 123.47002 | 31805 ft | 379 kts | 270° |
| 2026-04-20 15:49 | 43.62968 | 123.43387 | 31980 ft | 379 kts | 270° |
| 2026-04-20 15:49 | 43.62736 | 123.39751 | 32150 ft | 379 kts | 270° |
| 2026-04-20 15:49 | 43.62508 | 123.36167 | 32321 ft | 379 kts | 270° |
| 2026-04-20 15:50 | 43.62276 | 123.32561 | 32517 ft | 378 kts | 270° |
| 2026-04-20 15:50 | 43.62043 | 123.28972 | 32712 ft | 378 kts | 270° |
| 2026-04-20 15:50 | 43.61809 | 123.25369 | 32895 ft | 378 kts | 270° |
| 2026-04-20 15:50 | 43.61576 | 123.21790 | 33088 ft | 378 kts | 270° |
| 2026-04-20 15:51 | 43.61350 | 123.18162 | 33282 ft | 376 kts | 270° |
| 2026-04-20 15:51 | 43.61170 | 123.14581 | 33499 ft | 375 kts | 270° |
| 2026-04-20 15:51 | 43.60994 | 123.11012 | 33712 ft | 374 kts | 271° |
| 2026-04-20 15:51 | 43.60819 | 123.07455 | 33906 ft | 375 kts | 271° |
| 2026-04-20 15:52 | 43.60639 | 123.03845 | 34068 ft | 376 kts | 271° |
| 2026-04-20 15:52 | 43.60458 | 123.00261 | 34253 ft | 376 kts | 271° |
| 2026-04-20 15:52 | 43.60276 | 122.96714 | 34428 ft | 377 kts | 271° |
| 2026-04-20 15:53 | 43.59903 | 122.89510 | 34703 ft | 378 kts | 270° |
| 2026-04-20 15:53 | 43.59714 | 122.85907 | 34832 ft | 380 kts | 270° |
| 2026-04-20 15:53 | 43.59522 | 122.82280 | 34984 ft | 380 kts | 270° |
| 2026-04-20 15:53 | 43.59327 | 122.78655 | 35144 ft | 380 kts | 271° |
| 2026-04-20 15:54 | 43.59134 | 122.75019 | 35290 ft | 379 kts | 270° |
| 2026-04-20 15:54 | 43.58940 | 122.71411 | 35414 ft | 380 kts | 270° |
| 2026-04-20 15:54 | 43.58741 | 122.67773 | 35519 ft | 380 kts | 270° |
| 2026-04-20 15:54 | 43.58543 | 122.64159 | 35608 ft | 381 kts | 270° |
| 2026-04-20 15:55 | 43.58346 | 122.60548 | 35720 ft | 381 kts | 270° |
| 2026-04-20 15:55 | 43.58144 | 122.56898 | 35764 ft | 381 kts | 270° |
| 2026-04-20 15:55 | 43.57737 | 122.49666 | 35784 ft | 380 kts | 270° |
| 2026-04-20 15:56 | 43.57326 | 122.42433 | 35804 ft | 380 kts | 271° |
| 2026-04-20 15:56 | 43.56914 | 122.35194 | 35799 ft | 379 kts | 270° |
| 2026-04-20 15:57 | 43.56331 | 122.27970 | 35796 ft | 381 kts | 266° |
| 2026-04-20 15:57 | 43.55257 | 122.20811 | 35796 ft | 383 kts | 262° |
| 2026-04-20 15:58 | 43.53690 | 122.13774 | 35809 ft | 386 kts | 257° |
| 2026-04-20 15:58 | 43.51624 | 122.06911 | 35808 ft | 390 kts | 253° |
| 2026-04-20 15:59 | 43.49359 | 122.00175 | 35803 ft | 389 kts | 253° |
| 2026-04-20 15:59 | 43.47092 | 121.93462 | 35816 ft | 389 kts | 253° |
| 2026-04-20 16:00 | 43.44809 | 121.86733 | 35816 ft | 388 kts | 253° |
| 2026-04-20 16:00 | 43.42508 | 121.79995 | 35836 ft | 388 kts | 253° |
| 2026-04-20 16:01 | 43.40220 | 121.73297 | 35814 ft | 389 kts | 253° |
| 2026-04-20 16:01 | 43.37931 | 121.66615 | 35835 ft | 389 kts | 253° |
| 2026-04-20 16:02 | 43.35621 | 121.59899 | 35837 ft | 388 kts | 253° |
| 2026-04-20 16:02 | 43.33320 | 121.53214 | 35830 ft | 388 kts | 253° |
| 2026-04-20 16:03 | 43.31018 | 121.46554 | 35838 ft | 388 kts | 253° |
| 2026-04-20 16:03 | 43.28708 | 121.39880 | 35852 ft | 388 kts | 253° |
| 2026-04-20 16:04 | 43.26400 | 121.33221 | 35834 ft | 388 kts | 253° |
| 2026-04-20 16:04 | 43.24086 | 121.26550 | 35834 ft | 387 kts | 252° |
| 2026-04-20 16:05 | 43.21782 | 121.19937 | 35840 ft | 389 kts | 253° |
| 2026-04-20 16:05 | 43.19448 | 121.13253 | 35858 ft | 387 kts | 253° |
| 2026-04-20 16:06 | 43.17129 | 121.06635 | 35844 ft | 387 kts | 252° |
| 2026-04-20 16:06 | 43.14813 | 121.00041 | 35848 ft | 387 kts | 253° |
| 2026-04-20 16:07 | 43.12481 | 120.93417 | 35848 ft | 386 kts | 252° |
| 2026-04-20 16:07 | 43.10135 | 120.86769 | 35837 ft | 386 kts | 252° |
| 2026-04-20 16:08 | 43.07814 | 120.80215 | 35849 ft | 387 kts | 253° |
| 2026-04-20 16:08 | 43.05470 | 120.73600 | 35847 ft | 387 kts | 253° |
| 2026-04-20 16:09 | 43.03107 | 120.66959 | 35851 ft | 387 kts | 253° |
| 2026-04-20 16:09 | 43.00754 | 120.60362 | 35861 ft | 386 kts | 252° |
| 2026-04-20 16:10 | 42.98407 | 120.53801 | 35867 ft | 387 kts | 252° |
| 2026-04-20 16:10 | 42.96063 | 120.47209 | 35871 ft | 385 kts | 253° |
| 2026-04-20 16:11 | 42.93839 | 120.40588 | 35861 ft | 386 kts | 254° |
| 2026-04-20 16:11 | 42.91610 | 120.33948 | 35872 ft | 386 kts | 253° |
| 2026-04-20 16:12 | 42.89381 | 120.27338 | 35876 ft | 386 kts | 253° |
| 2026-04-20 16:12 | 42.87107 | 120.20698 | 35883 ft | 385 kts | 253° |
| 2026-04-20 16:13 | 42.84851 | 120.14113 | 35884 ft | 385 kts | 253° |
| 2026-04-20 16:13 | 42.82588 | 120.07502 | 35887 ft | 385 kts | 253° |
| 2026-04-20 16:14 | 42.80341 | 120.00938 | 35888 ft | 386 kts | 253° |
| 2026-04-20 16:14 | 42.78070 | 119.94318 | 35883 ft | 386 kts | 253° |
| 2026-04-20 16:15 | 42.75807 | 119.87732 | 35882 ft | 385 kts | 253° |
| 2026-04-20 16:15 | 42.73539 | 119.81150 | 35885 ft | 385 kts | 253° |
| 2026-04-20 16:16 | 42.71281 | 119.74610 | 35883 ft | 385 kts | 253° |
| 2026-04-20 16:16 | 42.69008 | 119.68049 | 35886 ft | 385 kts | 253° |
| 2026-04-20 16:17 | 42.66742 | 119.61512 | 35887 ft | 384 kts | 253° |
| 2026-04-20 16:17 | 42.64455 | 119.54939 | 35890 ft | 384 kts | 253° |
| 2026-04-20 16:18 | 42.62173 | 119.48392 | 35886 ft | 384 kts | 253° |
| 2026-04-20 16:18 | 42.59886 | 119.41846 | 35884 ft | 384 kts | 253° |
| 2026-04-20 16:19 | 42.57604 | 119.35330 | 35887 ft | 384 kts | 253° |
| 2026-04-20 16:19 | 42.55317 | 119.28805 | 35892 ft | 384 kts | 253° |
| 2026-04-20 16:20 | 42.53028 | 119.22291 | 35897 ft | 385 kts | 253° |
| 2026-04-20 16:20 | 42.50722 | 119.15743 | 35907 ft | 383 kts | 253° |
| 2026-04-20 16:21 | 42.48434 | 119.09271 | 35907 ft | 384 kts | 253° |
| 2026-04-20 16:21 | 42.46129 | 119.02763 | 35903 ft | 384 kts | 253° |
| 2026-04-20 16:22 | 42.43826 | 118.96282 | 35895 ft | 383 kts | 253° |
| 2026-04-20 16:22 | 42.41529 | 118.89829 | 35889 ft | 381 kts | 253° |
| 2026-04-20 16:23 | 42.39238 | 118.83412 | 35902 ft | 381 kts | 253° |
| 2026-04-20 16:23 | 42.36930 | 118.76962 | 35904 ft | 380 kts | 253° |
| 2026-04-20 16:24 | 42.34624 | 118.70527 | 35909 ft | 380 kts | 253° |
| 2026-04-20 16:24 | 42.32321 | 118.64118 | 35923 ft | 379 kts | 253° |
| 2026-04-20 16:25 | 42.30028 | 118.57750 | 35931 ft | 377 kts | 253° |
| 2026-04-20 16:25 | 42.27736 | 118.51405 | 35931 ft | 378 kts | 253° |
| 2026-04-20 16:26 | 42.25440 | 118.45059 | 35932 ft | 376 kts | 253° |
| 2026-04-20 16:26 | 42.23140 | 118.38716 | 35760 ft | 375 kts | 253° |
| 2026-04-20 16:27 | 42.21446 | 118.32210 | 35902 ft | 365 kts | 265° |
| 2026-04-20 16:27 | 42.20898 | 118.25556 | 35931 ft | 357 kts | 275° |
| 2026-04-20 16:28 | 42.21429 | 118.18948 | 35963 ft | 354 kts | 284° |
| 2026-04-20 16:28 | 42.22974 | 118.12734 | 35941 ft | 352 kts | 293° |
| 2026-04-20 16:29 | 42.25001 | 118.06712 | 35936 ft | 353 kts | 294° |
| 2026-04-20 16:29 | 42.27075 | 118.00675 | 35918 ft | 354 kts | 293° |
| 2026-04-20 16:30 | 42.29148 | 117.94697 | 35933 ft | 354 kts | 293° |
| 2026-04-20 16:30 | 42.31239 | 117.88657 | 35915 ft | 354 kts | 294° |
| 2026-04-20 16:31 | 42.33321 | 117.82662 | 35932 ft | 353 kts | 293° |
| 2026-04-20 16:31 | 42.35054 | 117.76479 | 35930 ft | 354 kts | 287° |
| 2026-04-20 16:32 | 42.36218 | 117.69969 | 35945 ft | 355 kts | 282° |
| 2026-04-20 16:32 | 42.36773 | 117.63378 | 35942 ft | 356 kts | 277° |
| 2026-04-20 16:33 | 42.36732 | 117.56676 | 35949 ft | 358 kts | 272° |
| 2026-04-20 16:33 | 42.36446 | 117.49972 | 35945 ft | 358 kts | 272° |
| 2026-04-20 16:34 | 42.36144 | 117.43277 | 35944 ft | 358 kts | 271° |
| 2026-04-20 16:34 | 42.35832 | 117.36579 | 35960 ft | 357 kts | 271° |
| 2026-04-20 16:35 | 42.35506 | 117.29904 | 35962 ft | 357 kts | 271° |
| 2026-04-20 16:35 | 42.35180 | 117.23235 | 35961 ft | 356 kts | 271° |
| 2026-04-20 16:36 | 42.34847 | 117.16598 | 35968 ft | 356 kts | 271° |
| 2026-04-20 16:36 | 42.34510 | 117.09975 | 35966 ft | 357 kts | 271° |
| 2026-04-20 16:37 | 42.34172 | 117.03318 | 35975 ft | 354 kts | 271° |
| 2026-04-20 16:37 | 42.33828 | 116.96685 | 35978 ft | 355 kts | 271° |
| 2026-04-20 16:38 | 42.33483 | 116.90084 | 35993 ft | 354 kts | 271° |
| 2026-04-20 16:38 | 42.33128 | 116.83463 | 35987 ft | 355 kts | 272° |
| 2026-04-20 16:39 | 42.32777 | 116.76865 | 35994 ft | 353 kts | 271° |
| 2026-04-20 16:39 | 42.32416 | 116.70255 | 35994 ft | 354 kts | 272° |
| 2026-04-20 16:40 | 42.32055 | 116.63641 | 35993 ft | 353 kts | 271° |
| 2026-04-20 16:40 | 42.31691 | 116.57066 | 36002 ft | 352 kts | 271° |
| 2026-04-20 16:41 | 42.31319 | 116.50500 | 35992 ft | 350 kts | 271° |
| 2026-04-20 16:41 | 42.30947 | 116.43919 | 36003 ft | 350 kts | 271° |
| 2026-04-20 16:42 | 42.30577 | 116.37413 | 35989 ft | 350 kts | 271° |
| 2026-04-20 16:42 | 42.30193 | 116.30840 | 36005 ft | 351 kts | 271° |
| 2026-04-20 16:43 | 42.29810 | 116.24320 | 36004 ft | 350 kts | 271° |
| 2026-04-20 16:43 | 42.29426 | 116.17808 | 36013 ft | 349 kts | 271° |
| 2026-04-20 16:44 | 42.29037 | 116.11289 | 36002 ft | 349 kts | 271° |
| 2026-04-20 16:44 | 42.28645 | 116.04768 | 36010 ft | 350 kts | 271° |
| 2026-04-20 16:45 | 42.28251 | 115.98286 | 36006 ft | 348 kts | 271° |
| 2026-04-20 16:45 | 42.27851 | 115.91765 | 36006 ft | 349 kts | 271° |
| 2026-04-20 16:46 | 42.27449 | 115.85291 | 36007 ft | 347 kts | 271° |
| 2026-04-20 16:46 | 42.27041 | 115.78788 | 36017 ft | 347 kts | 271° |
| 2026-04-20 16:47 | 42.26635 | 115.72347 | 36016 ft | 346 kts | 271° |
| 2026-04-20 16:47 | 42.26223 | 115.65913 | 36017 ft | 347 kts | 271° |
| 2026-04-20 16:48 | 42.25812 | 115.59439 | 36008 ft | 347 kts | 271° |
| 2026-04-20 16:48 | 42.25395 | 115.52972 | 36012 ft | 346 kts | 271° |
| 2026-04-20 16:49 | 42.24974 | 115.46511 | 36023 ft | 346 kts | 271° |
| 2026-04-20 16:49 | 42.24550 | 115.40095 | 36007 ft | 347 kts | 271° |
| 2026-04-20 16:50 | 42.24121 | 115.33628 | 36018 ft | 345 kts | 270° |
| 2026-04-20 16:50 | 42.23687 | 115.27203 | 36032 ft | 346 kts | 270° |
| 2026-04-20 16:51 | 42.23252 | 115.20765 | 36025 ft | 346 kts | 271° |
| 2026-04-20 16:51 | 42.22818 | 115.14333 | 36025 ft | 344 kts | 270° |
| 2026-04-20 16:52 | 42.22373 | 115.07921 | 36026 ft | 345 kts | 271° |
| 2026-04-20 16:52 | 42.21927 | 115.01502 | 36022 ft | 346 kts | 270° |
| 2026-04-20 16:53 | 42.21478 | 114.95080 | 36030 ft | 345 kts | 271° |
| 2026-04-20 16:53 | 42.21027 | 114.88680 | 36034 ft | 344 kts | 270° |
| 2026-04-20 16:54 | 42.20568 | 114.82261 | 36026 ft | 344 kts | 270° |
| 2026-04-20 16:54 | 42.20108 | 114.75855 | 36021 ft | 344 kts | 270° |
| 2026-04-20 16:55 | 42.19645 | 114.69474 | 36027 ft | 343 kts | 270° |
| 2026-04-20 16:55 | 42.19175 | 114.63075 | 36021 ft | 345 kts | 271° |
| 2026-04-20 16:56 | 42.18702 | 114.56643 | 36028 ft | 344 kts | 271° |
| 2026-04-20 16:56 | 42.18231 | 114.50260 | 36027 ft | 344 kts | 270° |
| 2026-04-20 16:57 | 42.17749 | 114.43868 | 36025 ft | 344 kts | 271° |
| 2026-04-20 16:57 | 42.17269 | 114.37494 | 36020 ft | 344 kts | 271° |
| 2026-04-20 16:58 | 42.16781 | 114.31079 | 36034 ft | 344 kts | 270° |
| 2026-04-20 16:58 | 42.16295 | 114.24692 | 36034 ft | 345 kts | 270° |
| 2026-04-20 16:59 | 42.15799 | 114.18295 | 36036 ft | 345 kts | 270° |
| 2026-04-20 16:59 | 42.15303 | 114.11880 | 36042 ft | 343 kts | 270° |
| 2026-04-20 17:00 | 42.14552 | 114.02301 | 36034 ft | 344 kts | 270° |
| 2026-04-20 17:01 | 42.14046 | 113.95930 | 36040 ft | 343 kts | 270° |
| 2026-04-20 17:01 | 42.13537 | 113.89542 | 36043 ft | 344 kts | 270° |
| 2026-04-20 17:02 | 42.13028 | 113.83208 | 36039 ft | 343 kts | 270° |
| 2026-04-20 17:02 | 42.12506 | 113.76790 | 36036 ft | 344 kts | 270° |
| 2026-04-20 17:03 | 42.11988 | 113.70431 | 36041 ft | 345 kts | 270° |
| 2026-04-20 17:03 | 42.11462 | 113.64017 | 36049 ft | 345 kts | 269° |
| 2026-04-20 17:04 | 42.10583 | 113.57654 | 36059 ft | 351 kts | 263° |
| 2026-04-20 17:04 | 42.08885 | 113.51436 | 36058 ft | 361 kts | 256° |
| 2026-04-20 17:05 | 42.06330 | 113.45485 | 36057 ft | 374 kts | 247° |
| 2026-04-20 17:05 | 42.02934 | 113.40078 | 36054 ft | 388 kts | 239° |
| 2026-04-20 17:06 | 41.99130 | 113.34948 | 36059 ft | 388 kts | 237° |
| 2026-04-20 17:06 | 41.95281 | 113.29804 | 36062 ft | 389 kts | 237° |
| 2026-04-20 17:07 | 41.91449 | 113.24723 | 36057 ft | 390 kts | 237° |
| 2026-04-20 17:07 | 41.87593 | 113.19644 | 36058 ft | 389 kts | 237° |
| 2026-04-20 17:08 | 41.83668 | 113.14615 | 36058 ft | 395 kts | 234° |
| 2026-04-20 17:08 | 41.79541 | 113.09780 | 36067 ft | 393 kts | 234° |
| 2026-04-20 17:08 | 41.77495 | 113.07372 | 36308 ft | 393 kts | 234° |
| 2026-04-20 17:09 | 41.75428 | 113.04988 | 36160 ft | 392 kts | 233° |
| 2026-04-20 17:09 | 41.71287 | 113.00324 | 36087 ft | 393 kts | 233° |
| 2026-04-20 17:10 | 41.67126 | 112.95637 | 36081 ft | 393 kts | 233° |
| 2026-04-20 17:10 | 41.62949 | 112.90933 | 36078 ft | 393 kts | 233° |
| 2026-04-20 17:11 | 41.58774 | 112.86244 | 36083 ft | 392 kts | 233° |
| 2026-04-20 17:11 | 41.54614 | 112.81572 | 36084 ft | 393 kts | 233° |
| 2026-04-20 17:12 | 41.50442 | 112.76897 | 36088 ft | 391 kts | 233° |
| 2026-04-20 17:12 | 41.46276 | 112.72242 | 36088 ft | 393 kts | 233° |
| 2026-04-20 17:13 | 41.42162 | 112.67519 | 36095 ft | 391 kts | 233° |
| 2026-04-20 17:13 | 41.38092 | 112.62803 | 36095 ft | 389 kts | 233° |
| 2026-04-20 17:14 | 41.34013 | 112.58092 | 36094 ft | 390 kts | 233° |
| 2026-04-20 17:14 | 41.29909 | 112.53362 | 36097 ft | 391 kts | 233° |
| 2026-04-20 17:15 | 41.25805 | 112.48644 | 36101 ft | 391 kts | 233° |
| 2026-04-20 17:15 | 41.21710 | 112.43941 | 36102 ft | 390 kts | 233° |
| 2026-04-20 17:16 | 41.17597 | 112.39230 | 36107 ft | 390 kts | 233° |
| 2026-04-20 17:16 | 41.13502 | 112.34544 | 36114 ft | 390 kts | 232° |
| 2026-04-20 17:17 | 41.09393 | 112.29836 | 36113 ft | 391 kts | 232° |
| 2026-04-20 17:17 | 41.05269 | 112.25156 | 36116 ft | 393 kts | 231° |
| 2026-04-20 17:18 | 41.01044 | 112.20596 | 36119 ft | 393 kts | 231° |
| 2026-04-20 17:18 | 40.96798 | 112.16035 | 36122 ft | 394 kts | 231° |
| 2026-04-20 17:19 | 40.92552 | 112.11470 | 36109 ft | 393 kts | 231° |
| 2026-04-20 17:19 | 40.88317 | 112.06937 | 36111 ft | 394 kts | 230° |
| 2026-04-20 17:20 | 40.84049 | 112.02390 | 36093 ft | 394 kts | 230° |
| 2026-04-20 17:20 | 40.79787 | 111.97855 | 36097 ft | 395 kts | 229° |
| 2026-04-20 17:21 | 40.75061 | 111.93870 | 36072 ft | 410 kts | 219° |
| 2026-04-20 17:21 | 40.69722 | 111.90940 | 36078 ft | 427 kts | 210° |
| 2026-04-20 17:22 | 40.63829 | 111.89270 | 36107 ft | 441 kts | 199° |
| 2026-04-20 17:22 | 40.57656 | 111.88642 | 36118 ft | 447 kts | 196° |
| 2026-04-20 17:23 | 40.51467 | 111.88152 | 36122 ft | 447 kts | 196° |
| 2026-04-20 17:23 | 40.45265 | 111.87644 | 36120 ft | 447 kts | 196° |
| 2026-04-20 17:24 | 40.39045 | 111.87124 | 36124 ft | 447 kts | 196° |
| 2026-04-20 17:24 | 40.32868 | 111.86620 | 36122 ft | 446 kts | 196° |
| 2026-04-20 17:25 | 40.26714 | 111.86121 | 36117 ft | 444 kts | 196° |
| 2026-04-20 17:25 | 40.20535 | 111.85615 | 36125 ft | 446 kts | 196° |
| 2026-04-20 17:26 | 40.14348 | 111.85110 | 36119 ft | 445 kts | 196° |
| 2026-04-20 17:26 | 40.08158 | 111.84603 | 36121 ft | 443 kts | 197° |
| 2026-04-20 17:27 | 40.02171 | 111.83491 | 36119 ft | 433 kts | 205° |
| 2026-04-20 17:27 | 39.96479 | 111.81410 | 36121 ft | 420 kts | 211° |
| 2026-04-20 17:28 | 39.91167 | 111.78468 | 36123 ft | 409 kts | 219° |
| 2026-04-20 17:28 | 39.86152 | 111.75023 | 36122 ft | 408 kts | 219° |
| 2026-04-20 17:29 | 39.81122 | 111.71560 | 36119 ft | 408 kts | 219° |
| 2026-04-20 17:29 | 39.76111 | 111.68113 | 36118 ft | 409 kts | 219° |
| 2026-04-20 17:30 | 39.71113 | 111.64672 | 36121 ft | 410 kts | 219° |
| 2026-04-20 17:30 | 39.66077 | 111.61208 | 36126 ft | 410 kts | 219° |
| 2026-04-20 17:31 | 39.61036 | 111.57746 | 36111 ft | 407 kts | 219° |
| 2026-04-20 17:31 | 39.56034 | 111.54318 | 36105 ft | 407 kts | 219° |
| 2026-04-20 17:32 | 39.51036 | 111.50897 | 36109 ft | 409 kts | 219° |
| 2026-04-20 17:32 | 39.45986 | 111.47441 | 36105 ft | 411 kts | 219° |
| 2026-04-20 17:33 | 39.40953 | 111.44005 | 36102 ft | 408 kts | 218° |
| 2026-04-20 17:33 | 39.35934 | 111.40588 | 36102 ft | 411 kts | 219° |
| 2026-04-20 17:34 | 39.30891 | 111.37161 | 36097 ft | 409 kts | 219° |
| 2026-04-20 17:34 | 39.25864 | 111.33742 | 36101 ft | 409 kts | 219° |
| 2026-04-20 17:35 | 39.20817 | 111.30290 | 36099 ft | 409 kts | 218° |
| 2026-04-20 17:35 | 39.15792 | 111.26877 | 36100 ft | 412 kts | 218° |
| 2026-04-20 17:36 | 39.10744 | 111.23456 | 36093 ft | 413 kts | 218° |
| 2026-04-20 17:36 | 39.05665 | 111.20024 | 36095 ft | 411 kts | 218° |
| 2026-04-20 17:37 | 39.00623 | 111.16631 | 36094 ft | 409 kts | 218° |
| 2026-04-20 17:37 | 38.95563 | 111.13227 | 36095 ft | 411 kts | 218° |
| 2026-04-20 17:38 | 38.90486 | 111.09817 | 36087 ft | 411 kts | 218° |
| 2026-04-20 17:38 | 38.85407 | 111.06432 | 36087 ft | 412 kts | 218° |
| 2026-04-20 17:39 | 38.80298 | 111.03029 | 36082 ft | 412 kts | 218° |
| 2026-04-20 17:39 | 38.75245 | 110.99661 | 36078 ft | 412 kts | 218° |
| 2026-04-20 17:40 | 38.70158 | 110.96272 | 36076 ft | 411 kts | 218° |
| 2026-04-20 17:40 | 38.65096 | 110.92903 | 36077 ft | 412 kts | 218° |
| 2026-04-20 17:41 | 38.60023 | 110.89529 | 36076 ft | 411 kts | 218° |
| 2026-04-20 17:41 | 38.54951 | 110.86163 | 36080 ft | 412 kts | 218° |
| 2026-04-20 17:42 | 38.49891 | 110.82807 | 36083 ft | 411 kts | 217° |
| 2026-04-20 17:42 | 38.44824 | 110.79457 | 36072 ft | 412 kts | 218° |
| 2026-04-20 17:43 | 38.39729 | 110.76090 | 36079 ft | 411 kts | 218° |
| 2026-04-20 17:43 | 38.34683 | 110.72759 | 36080 ft | 410 kts | 217° |
| 2026-04-20 17:44 | 38.29626 | 110.69431 | 36081 ft | 409 kts | 217° |
| 2026-04-20 17:44 | 38.24572 | 110.66109 | 36075 ft | 409 kts | 217° |
| 2026-04-20 17:45 | 38.19509 | 110.62782 | 36071 ft | 411 kts | 218° |
| 2026-04-20 17:45 | 38.14429 | 110.59450 | 36075 ft | 410 kts | 217° |
| 2026-04-20 17:46 | 38.09349 | 110.56129 | 36076 ft | 410 kts | 218° |
| 2026-04-20 17:46 | 38.04282 | 110.52816 | 36074 ft | 412 kts | 218° |
| 2026-04-20 17:47 | 37.99209 | 110.49505 | 36073 ft | 409 kts | 218° |
| 2026-04-20 17:47 | 37.94141 | 110.46203 | 36066 ft | 408 kts | 217° |
| 2026-04-20 17:48 | 37.89112 | 110.42936 | 36066 ft | 410 kts | 217° |
| 2026-04-20 17:48 | 37.84036 | 110.39662 | 36071 ft | 409 kts | 217° |
| 2026-04-20 17:49 | 37.78968 | 110.36499 | 36075 ft | 410 kts | 216° |
| 2026-04-20 17:49 | 37.73837 | 110.33281 | 36075 ft | 411 kts | 216° |
| 2026-04-20 17:50 | 37.68742 | 110.29998 | 36071 ft | 413 kts | 216° |
| 2026-04-20 17:50 | 37.63662 | 110.26710 | 36068 ft | 412 kts | 216° |
| 2026-04-20 17:51 | 37.58566 | 110.23426 | 36065 ft | 412 kts | 216° |
| 2026-04-20 17:51 | 37.53487 | 110.20146 | 36063 ft | 413 kts | 216° |
| 2026-04-20 17:52 | 37.48388 | 110.16863 | 36068 ft | 412 kts | 216° |
| 2026-04-20 17:52 | 37.43283 | 110.13583 | 36069 ft | 413 kts | 216° |
| 2026-04-20 17:53 | 37.38167 | 110.10297 | 36074 ft | 413 kts | 216° |
| 2026-04-20 17:53 | 37.33050 | 110.07021 | 36067 ft | 411 kts | 216° |
| 2026-04-20 17:54 | 37.27956 | 110.03758 | 36068 ft | 410 kts | 215° |
| 2026-04-20 17:54 | 37.22867 | 110.00507 | 36071 ft | 413 kts | 216° |
| 2026-04-20 17:55 | 37.17800 | 109.97272 | 36071 ft | 409 kts | 216° |
| 2026-04-20 17:55 | 37.12677 | 109.94007 | 36075 ft | 411 kts | 215° |
| 2026-04-20 17:56 | 37.07563 | 109.90752 | 36073 ft | 413 kts | 214° |
| 2026-04-20 17:56 | 37.02475 | 109.87525 | 36071 ft | 412 kts | 215° |
| 2026-04-20 17:57 | 36.97374 | 109.84290 | 36061 ft | 413 kts | 215° |
| 2026-04-20 17:57 | 36.92233 | 109.81033 | 36066 ft | 414 kts | 214° |
| 2026-04-20 17:58 | 36.87110 | 109.77802 | 36075 ft | 414 kts | 214° |
| 2026-04-20 17:58 | 36.81965 | 109.74577 | 36072 ft | 415 kts | 214° |
| 2026-04-20 17:59 | 36.76797 | 109.71325 | 36075 ft | 416 kts | 214° |
| 2026-04-20 17:59 | 36.71620 | 109.68073 | 36081 ft | 415 kts | 214° |
| 2026-04-20 18:00 | 36.66470 | 109.64838 | 36079 ft | 415 kts | 214° |
| 2026-04-20 18:00 | 36.61311 | 109.61603 | 36080 ft | 416 kts | 213° |
| 2026-04-20 18:01 | 36.56145 | 109.58373 | 36078 ft | 419 kts | 214° |
| 2026-04-20 18:01 | 36.50923 | 109.55097 | 36079 ft | 419 kts | 213° |
| 2026-04-20 18:02 | 36.45739 | 109.51868 | 36080 ft | 420 kts | 214° |
| 2026-04-20 18:02 | 36.40522 | 109.48611 | 36087 ft | 417 kts | 213° |
| 2026-04-20 18:03 | 36.35354 | 109.45393 | 36087 ft | 420 kts | 213° |
| 2026-04-20 18:03 | 36.30123 | 109.42139 | 36080 ft | 421 kts | 213° |
| 2026-04-20 18:04 | 36.24880 | 109.38889 | 36084 ft | 422 kts | 213° |
| 2026-04-20 18:04 | 36.19624 | 109.35630 | 36083 ft | 423 kts | 213° |
| 2026-04-20 18:05 | 36.11742 | 109.30724 | 36084 ft | 423 kts | 213° |
| 2026-04-20 18:05 | 36.06473 | 109.27457 | 36080 ft | 427 kts | 213° |
| 2026-04-20 18:06 | 36.01181 | 109.24188 | 36072 ft | 428 kts | 212° |
| 2026-04-20 18:06 | 35.95851 | 109.20911 | 36072 ft | 429 kts | 213° |
| 2026-04-20 18:07 | 35.90534 | 109.17643 | 36066 ft | 428 kts | 212° |
| 2026-04-20 18:07 | 35.85341 | 109.14088 | 36067 ft | 427 kts | 218° |
| 2026-04-20 18:08 | 35.80498 | 109.09919 | 36064 ft | 423 kts | 224° |
| 2026-04-20 18:08 | 35.75923 | 109.05366 | 36070 ft | 423 kts | 225° |
| 2026-04-20 18:09 | 35.71355 | 109.00806 | 36058 ft | 422 kts | 225° |
| 2026-04-20 18:09 | 35.66827 | 108.96292 | 36063 ft | 421 kts | 225° |
| 2026-04-20 18:10 | 35.62260 | 108.91742 | 36061 ft | 423 kts | 225° |
| 2026-04-20 18:10 | 35.57707 | 108.87206 | 36059 ft | 423 kts | 224° |
| 2026-04-20 18:11 | 35.53138 | 108.82672 | 36057 ft | 423 kts | 224° |
| 2026-04-20 18:11 | 35.48537 | 108.78104 | 36028 ft | 425 kts | 225° |
| 2026-04-20 18:12 | 35.46260 | 108.75849 | 35377 ft | 426 kts | 224° |
| 2026-04-20 18:12 | 35.43944 | 108.73555 | 34653 ft | 424 kts | 224° |
| 2026-04-20 18:12 | 35.41677 | 108.71308 | 33928 ft | 422 kts | 224° |
| 2026-04-20 18:12 | 35.39389 | 108.69044 | 33226 ft | 421 kts | 224° |
| 2026-04-20 18:13 | 35.37114 | 108.66795 | 32507 ft | 421 kts | 224° |
| 2026-04-20 18:13 | 35.34856 | 108.64562 | 31735 ft | 422 kts | 223° |
| 2026-04-20 18:13 | 35.32578 | 108.62313 | 30942 ft | 424 kts | 223° |
| 2026-04-20 18:13 | 35.30256 | 108.60028 | 30121 ft | 427 kts | 223° |
| 2026-04-20 18:14 | 35.27961 | 108.57775 | 29313 ft | 428 kts | 223° |
| 2026-04-20 18:14 | 35.25620 | 108.55483 | 28478 ft | 430 kts | 222° |
| 2026-04-20 18:14 | 35.23291 | 108.53201 | 27623 ft | 432 kts | 223° |
| 2026-04-20 18:14 | 35.20939 | 108.50897 | 26723 ft | 435 kts | 222° |
| 2026-04-20 18:15 | 35.18565 | 108.48576 | 25765 ft | 438 kts | 222° |
| 2026-04-20 18:15 | 35.16204 | 108.46265 | 24728 ft | 443 kts | 222° |
| 2026-04-20 18:15 | 35.13797 | 108.43909 | 23677 ft | 446 kts | 222° |
| 2026-04-20 18:15 | 35.11370 | 108.41541 | 22832 ft | 444 kts | 222° |
| 2026-04-20 18:16 | 35.08972 | 108.39201 | 22167 ft | 439 kts | 221° |
| 2026-04-20 18:16 | 35.06621 | 108.36906 | 21497 ft | 434 kts | 221° |
| 2026-04-20 18:16 | 35.04276 | 108.34622 | 20804 ft | 430 kts | 220° |
| 2026-04-20 18:16 | 35.01970 | 108.32365 | 20102 ft | 426 kts | 221° |
| 2026-04-20 18:17 | 34.99656 | 108.30100 | 19503 ft | 422 kts | 220° |
| 2026-04-20 18:17 | 34.97380 | 108.27879 | 18829 ft | 421 kts | 220° |
| 2026-04-20 18:17 | 34.95082 | 108.25716 | 18077 ft | 420 kts | 216° |
| 2026-04-20 18:17 | 34.92451 | 108.24251 | 17424 ft | 420 kts | 199° |
| 2026-04-20 18:18 | 34.89546 | 108.23809 | 16797 ft | 421 kts | 181° |
| 2026-04-20 18:18 | 34.86641 | 108.24451 | 16182 ft | 424 kts | 164° |
| 2026-04-20 18:18 | 34.84030 | 108.26115 | 15541 ft | 429 kts | 148° |
| 2026-04-20 18:18 | 34.81886 | 108.28569 | 14860 ft | 430 kts | 136° |
| 2026-04-20 18:19 | 34.79845 | 108.31259 | 14135 ft | 428 kts | 136° |
| 2026-04-20 18:19 | 34.77854 | 108.33890 | 13440 ft | 424 kts | 136° |
| 2026-04-20 18:19 | 34.75854 | 108.36517 | 12755 ft | 418 kts | 135° |
| 2026-04-20 18:19 | 34.73906 | 108.39066 | 12070 ft | 411 kts | 134° |
| 2026-04-20 18:20 | 34.71979 | 108.41584 | 11495 ft | 403 kts | 135° |
| 2026-04-20 18:20 | 34.70103 | 108.44028 | 11073 ft | 389 kts | 135° |
| 2026-04-20 18:20 | 34.68288 | 108.46387 | 10813 ft | 373 kts | 135° |
| 2026-04-20 18:20 | 34.66549 | 108.48648 | 10585 ft | 358 kts | 134° |
| 2026-04-20 18:21 | 34.64882 | 108.50814 | 10382 ft | 343 kts | 134° |
| 2026-04-20 18:21 | 34.63302 | 108.52864 | 10226 ft | 329 kts | 134° |
| 2026-04-20 18:21 | 34.61766 | 108.54855 | 10096 ft | 315 kts | 134° |
| 2026-04-20 18:21 | 34.60297 | 108.56762 | 9993 ft | 300 kts | 135° |
| 2026-04-20 18:22 | 34.58886 | 108.58585 | 9715 ft | 294 kts | 134° |
| 2026-04-20 18:22 | 34.57512 | 108.60359 | 9542 ft | 283 kts | 134° |
| 2026-04-20 18:22 | 34.56165 | 108.62034 | 9467 ft | 270 kts | 141° |
| 2026-04-20 18:22 | 34.54498 | 108.62919 | 9284 ft | 260 kts | 175° |
| 2026-04-20 18:23 | 34.52777 | 108.62569 | 9172 ft | 250 kts | 197° |
| 2026-04-20 18:23 | 34.51114 | 108.62024 | 8947 ft | 243 kts | 180° |
| 2026-04-20 18:23 | 34.49538 | 108.62540 | 8754 ft | 236 kts | 142° |
| 2026-04-20 18:23 | 34.48607 | 108.64093 | 8560 ft | 232 kts | 104° |
| 2026-04-20 18:24 | 34.48679 | 108.66014 | 8357 ft | 230 kts | 70° |
| 2026-04-20 18:24 | 34.49552 | 108.67596 | 8168 ft | 230 kts | 48° |
| 2026-04-20 18:24 | 34.50731 | 108.68926 | 7902 ft | 233 kts | 43° |
| 2026-04-20 18:24 | 34.51969 | 108.70209 | 7580 ft | 234 kts | 43° |
| 2026-04-20 18:25 | 34.53223 | 108.71484 | 7251 ft | 235 kts | 42° |
| 2026-04-20 18:25 | 34.54478 | 108.72749 | 6922 ft | 236 kts | 42° |
| 2026-04-20 18:25 | 34.55750 | 108.74029 | 6592 ft | 236 kts | 42° |
| 2026-04-20 18:25 | 34.57012 | 108.75356 | 6279 ft | 251 kts | 46° |
| 2026-04-20 18:26 | 34.58245 | 108.76889 | 5953 ft | 253 kts | 49° |
| 2026-04-20 18:26 | 34.59441 | 108.78453 | 5625 ft | 252 kts | 49° |
| 2026-04-20 18:26 | 34.60608 | 108.80003 | 5299 ft | 251 kts | 49° |
| 2026-04-20 18:26 | 34.61791 | 108.81586 | 4980 ft | 249 kts | 49° |
| 2026-04-20 18:27 | 34.62936 | 108.83126 | 4754 ft | 244 kts | 49° |
| 2026-04-20 18:27 | 34.64049 | 108.84634 | 4529 ft | 239 kts | 49° |
| 2026-04-20 18:27 | 34.65126 | 108.86131 | 4389 ft | 230 kts | 54° |
| 2026-04-20 18:27 | 34.65649 | 108.87869 | 4238 ft | 221 kts | 91° |
| 2026-04-20 18:28 | 34.65290 | 108.89612 | 4233 ft | 210 kts | 116° |
| 2026-04-20 18:28 | 34.64354 | 108.90981 | 4230 ft | 214 kts | 141° |
| 2026-04-20 18:28 | 34.62992 | 108.91754 | 4223 ft | 217 kts | 167° |
| 2026-04-20 18:28 | 34.61531 | 108.91732 | 4194 ft | 209 kts | 194° |
| 2026-04-20 18:29 | 34.60204 | 108.91084 | 4175 ft | 202 kts | 205° |
| 2026-04-20 18:29 | 34.58946 | 108.90314 | 4150 ft | 203 kts | 206° |
| 2026-04-20 18:29 | 34.57677 | 108.89534 | 4114 ft | 203 kts | 205° |
| 2026-04-20 18:29 | 34.56409 | 108.88777 | 4072 ft | 203 kts | 205° |
| 2026-04-20 18:30 | 34.55129 | 108.88025 | 3952 ft | 203 kts | 208° |
| 2026-04-20 18:30 | 34.53994 | 108.87037 | 3861 ft | 197 kts | 222° |
| 2026-04-20 18:30 | 34.53067 | 108.85865 | 3619 ft | 193 kts | 229° |
| 2026-04-20 18:30 | 34.52210 | 108.84633 | 3377 ft | 188 kts | 230° |
| 2026-04-20 18:31 | 34.51387 | 108.83455 | 3102 ft | 176 kts | 230° |
| 2026-04-20 18:31 | 34.50601 | 108.82364 | 2853 ft | 165 kts | 229° |
| 2026-04-20 18:31 | 34.49874 | 108.81368 | 2626 ft | 152 kts | 230° |
| 2026-04-20 18:31 | 34.49233 | 108.80486 | 2419 ft | 141 kts | 230° |
| 2026-04-20 18:32 | 34.48592 | 108.79602 | 2241 ft | 139 kts | 229° |
| 2026-04-20 18:32 | 34.47955 | 108.78723 | 2061 ft | 138 kts | 229° |
| 2026-04-20 18:32 | 34.47324 | 108.77855 | 1879 ft | 137 kts | 229° |
| 2026-04-20 18:32 | 34.46702 | 108.76997 | 1699 ft | 136 kts | 230° |
| 2026-04-20 18:33 | 34.46077 | 108.76136 | 1578 ft | 129 kts | 230° |
| 2026-04-20 18:33 | 34.45639 | 108.75533 | 1576 ft | 54 kts | 230° |
| 2026-04-20 18:33 | 34.45478 | 108.75301 | 1576 ft | 32 kts | 230° |
| 2026-04-20 18:33 | 34.45307 | 108.75134 | 1576 ft | 30 kts | 206° |
| 2026-04-20 18:34 | 34.45167 | 108.75068 | 1576 ft | 12 kts | 197° |
| 2026-04-20 18:34 | 34.45134 | 108.75110 | 1576 ft | 8 kts | 91° |
| 2026-04-20 18:34 | 34.45163 | 108.75176 | 1576 ft | 10 kts | 50° |
| 2026-04-20 18:34 | 34.45208 | 108.75238 | 1576 ft | 0 kts | 49° |
| 2026-04-20 18:35 | 34.45217 | 108.75249 | 1576 ft | 3 kts | 50° |
| 2026-04-20 18:35 | 34.45226 | 108.75300 | 1576 ft | 8 kts | 103° |
| 2026-04-20 18:35 | 34.45174 | 108.75370 | 1576 ft | 13 kts | 141° |
| 2026-04-20 18:36 | 34.45092 | 108.75454 | 1576 ft | 15 kts | 139° |
| 2026-04-20 18:36 | 34.45007 | 108.75544 | 1576 ft | 16 kts | 139° |
| 2026-04-20 18:36 | 34.44919 | 108.75637 | 1576 ft | 17 kts | 139° |
| 2026-04-20 18:36 | 34.44828 | 108.75733 | 1576 ft | 17 kts | 139° |
| 2026-04-20 18:37 | 34.44734 | 108.75832 | 1576 ft | 18 kts | 139° |
| 2026-04-20 18:37 | 34.44651 | 108.75899 | 1576 ft | 11 kts | 191° |
| 2026-04-20 18:37 | 34.44583 | 108.75879 | 1576 ft | 8 kts | 159° |
| 2026-04-20 18:37 | 34.44539 | 108.75903 | 1576 ft | 1 kts | 155° |
| 2026-04-20 18:38 | 34.44532 | 108.75906 | 1576 ft | 1 kts | 155° |
| 2026-04-20 18:38 | 34.44531 | 108.75907 | 1576 ft | 0 kts | 155° |
| 2026-04-20 18:39 | 34.44530 | 108.75907 | 1576 ft | 0 kts | 155° |